Terminal Aerodrome Forecast
Issued by NWS

Home | Current Version | Previous Version | Text Only | Print | Product List | Glossary On
Versions: 1 2 3 4 5 6 7 8 9 10 11 12 13 14 15 16 17 18 19 20 21 22 23 24 25 26 27 28 29 30 31 32 33 34 35 36 37 38 39 40
000
FTUS45 KSLC 291905 AAA
TAFEVW
TAF AMD
KEVW 291905Z 2919/3018 01007KT 6SM -RA BR SCT006 BKN050 OVC070
      TEMPO 2919/2920 3SM -RA BR FEW010 BKN040
     FM292000 34008KT P6SM VCTS BKN050CB OVC070
     FM300300 05010KT P6SM VCSH SCT060 BKN090
     FM301600 04008KT P6SM VCSH SCT030 BKN060=

USA.gov is the U.S. government's official web portal to all federal, state and local government web resources and services.